Time;durP1;ratioP1;P1;durP2;ratioP2;P2;SDS_P1;SDS_P2;PMS_P1;PMS_P2;Temp;Humidity;BMP_temperature;BMP_pressure;BME280_temperature;BME280_humidity;BME280_pressure;Samples;Min_cycle;Max_cycle;Signal;HPM_P1;HPM_P2
2023/04/13 00:00:52;;;;;;;;;;;;;;;14.04;65.25;100350.73;106118;1267;1003697;-55
2023/04/13 00:03:20;;;;;;;5.90;5.30;;;;;;;14.04;65.24;100349.70;107095;1267;25379;-55
2023/04/13 00:05:51;;;;;;;6.70;5.50;;;;;;;14.01;65.32;100346.17;106834;1267;25412;-56
2023/04/13 00:08:23;;;;;;;6.10;5.60;;;;;;;14.00;65.40;100350.56;106823;1275;25337;-55
2023/04/13 00:10:56;;;;;;;5.20;4.70;;;;;;;14.00;65.42;100351.45;107144;1272;22523;-55
2023/04/13 00:13:25;;;;;;;5.80;5.30;;;;;;;14.00;65.41;100348.48;107238;1269;22697;-55
2023/04/13 00:15:59;;;;;;;6.00;5.20;;;;;;;13.99;65.60;100347.66;106844;1267;26499;-55
2023/04/13 00:18:28;;;;;;;5.90;5.30;;;;;;;14.00;65.62;100342.73;107094;1269;25639;-55
2023/04/13 00:20:58;;;;;;;5.00;4.50;;;;;;;14.00;65.63;100343.63;106897;1267;25407;-55
2023/04/13 00:23:27;;;;;;;5.20;4.70;;;;;;;14.00;65.71;100345.00;106927;1268;24237;-55
2023/04/13 00:25:55;;;;;;;5.30;4.60;;;;;;;14.00;65.73;100345.02;107067;1270;25332;-55
2023/04/13 00:28:24;;;;;;;5.70;5.10;;;;;;;13.99;65.76;100342.45;107040;1270;25331;-55
2023/04/13 00:30:54;;;;;;;5.30;4.80;;;;;;;13.93;66.04;100340.05;107161;1267;25356;-55
2023/04/13 00:33:23;;;;;;;5.60;4.80;;;;;;;13.94;66.15;100336.73;107001;1269;24266;-55
2023/04/13 00:35:52;;;;;;;4.90;4.50;;;;;;;13.98;66.06;100331.29;107032;1269;25394;-55
2023/04/13 00:38:22;;;;;;;5.50;4.90;;;;;;;14.00;66.07;100331.08;106814;1270;25380;-55
2023/04/13 00:40:54;;;;;;;5.10;4.60;;;;;;;14.01;66.15;100333.30;107040;1270;25455;-55
2023/04/13 00:43:24;;;;;;;5.70;4.60;;;;;;;14.01;66.05;100335.56;107120;1267;22577;-55
2023/04/13 00:45:52;;;;;;;6.00;5.00;;;;;;;14.01;66.07;100334.33;107081;1272;23891;-55
2023/04/13 00:48:26;;;;;;;6.90;5.10;;;;;;;14.00;66.01;100334.02;106759;1275;25395;-55
2023/04/13 00:50:54;;;;;;;6.30;4.80;;;;;;;14.00;66.09;100330.73;106820;1267;24042;-55
2023/04/13 00:53:23;;;;;;;6.20;5.60;;;;;;;13.99;66.23;100330.06;106747;1276;25360;-55
2023/04/13 00:55:59;;;;;;;5.70;4.70;;;;;;;13.99;66.32;100337.37;106989;1271;25353;-55
2023/04/13 00:58:31;;;;;;;5.50;5.00;;;;;;;13.99;66.35;100334.56;106772;1271;25430;-55
2023/04/13 01:00:59;;;;;;;6.90;5.90;;;;;;;14.00;66.41;100339.24;107078;1269;22521;-55
2023/04/13 01:03:30;;;;;;;5.90;5.40;;;;;;;14.01;66.54;100341.82;107096;1267;25402;-55
2023/04/13 01:06:27;;;;;;;5.60;5.10;;;;;;;14.01;66.73;100342.15;107107;1267;25363;-55
2023/04/13 01:09:07;;;;;;;6.70;5.80;;;;;;;14.02;66.89;100341.05;107167;1269;22518;-55
2023/04/13 01:11:42;;;;;;;6.10;5.60;;;;;;;14.03;66.98;100342.94;107154;1267;24275;-55
2023/04/13 01:14:22;;;;;;;6.90;6.20;;;;;;;14.04;66.97;100340.65;107088;1267;26955;-55
2023/04/13 01:16:55;;;;;;;7.10;6.40;;;;;;;14.05;67.00;100345.65;106890;1267;25318;-55
2023/04/13 01:19:42;;;;;;;6.70;6.00;;;;;;;14.06;67.00;100343.86;106545;1270;24233;-55
2023/04/13 01:22:13;;;;;;;7.40;6.30;;;;;;;14.07;67.08;100347.84;107139;1269;25328;-55
2023/04/13 01:25:24;;;;;;;8.90;6.90;;;;;;;14.07;67.15;100347.30;107066;1269;22647;-55
2023/04/13 01:28:02;;;;;;;7.50;6.80;;;;;;;14.09;67.21;100350.71;106673;1277;25355;-55
2023/04/13 01:30:33;;;;;;;7.50;6.80;;;;;;;14.11;67.18;100347.16;106401;1277;25492;-55
2023/04/13 01:33:02;;;;;;;7.50;6.70;;;;;;;14.12;67.22;100346.55;106584;1275;25335;-55
2023/04/13 01:35:38;;;;;;;7.70;6.70;;;;;;;14.13;67.18;100343.38;106339;1275;25491;-55
2023/04/13 01:38:11;;;;;;;9.10;7.30;;;;;;;14.14;67.22;100344.38;106534;1275;22530;-55
2023/04/13 01:40:40;;;;;;;7.70;7.00;;;;;;;14.14;67.16;100341.61;106539;1275;22538;-55
2023/04/13 01:43:10;;;;;;;7.80;7.00;;;;;;;14.14;67.32;100339.70;106692;1276;24185;-55
2023/04/13 01:46:00;;;;;;;8.50;7.60;;;;;;;14.15;67.38;100340.02;106503;1274;25542;-55
2023/04/13 01:48:33;;;;;;;8.40;7.60;;;;;;;14.15;67.46;100338.60;106469;1274;22519;-55
2023/04/13 01:51:18;;;;;;;9.00;8.10;;;;;;;14.15;67.38;100344.00;106562;1275;25370;-55
2023/04/13 01:53:55;;;;;;;9.10;8.10;;;;;;;14.16;67.63;100345.37;106541;1276;25367;-55
2023/04/13 01:56:25;;;;;;;9.40;8.30;;;;;;;14.16;67.60;100343.95;106580;1275;25385;-55
2023/04/13 01:59:01;;;;;;;9.60;8.50;;;;;;;14.17;67.70;100343.22;106149;1266;25375;-55
2023/04/13 02:01:30;;;;;;;9.40;8.40;;;;;;;14.18;67.72;100342.33;106406;1281;22528;-55
2023/04/13 02:04:12;;;;;;;9.60;8.60;;;;;;;14.16;67.76;100338.70;106533;1275;24388;-55
2023/04/13 02:06:45;;;;;;;9.80;8.90;;;;;;;14.16;67.87;100338.52;106328;1270;1003034;-55
2023/04/13 02:09:14;;;;;;;8.70;7.90;;;;;;;14.18;68.03;100337.42;106963;1272;24199;-55
2023/04/13 02:11:43;;;;;;;9.20;8.40;;;;;;;14.19;68.15;100336.48;107026;1270;25359;-55
2023/04/13 02:14:24;;;;;;;8.90;8.00;;;;;;;14.19;68.16;100341.55;106794;1275;25366;-55
2023/04/13 02:16:57;;;;;;;9.80;8.60;;;;;;;14.18;68.32;100340.52;107085;1270;25538;-55
2023/04/13 02:19:25;;;;;;;9.80;8.90;;;;;;;14.16;68.56;100344.48;106994;1275;25359;-55
2023/04/13 02:21:56;;;;;;;10.20;8.70;;;;;;;14.13;68.76;100347.56;106971;1269;26076;-55
2023/04/13 02:24:24;;;;;;;10.80;9.80;;;;;;;14.10;69.03;100350.31;107064;1268;22523;-55
2023/04/13 02:26:55;;;;;;;10.60;9.60;;;;;;;14.11;69.26;100352.21;107006;1269;26196;-55
2023/04/13 02:29:24;;;;;;;10.00;9.00;;;;;;;14.09;69.35;100353.50;106915;1269;393770;-55
2023/04/13 02:31:53;;;;;;;10.10;9.20;;;;;;;14.07;69.46;100356.73;107142;1267;25341;-55
2023/04/13 02:34:21;;;;;;;8.80;8.00;;;;;;;14.05;69.73;100356.13;107056;1267;25344;-55
2023/04/13 02:36:50;;;;;;;10.20;8.70;;;;;;;14.04;69.63;100357.90;107094;1267;25420;-55
2023/04/13 02:39:25;;;;;;;9.10;8.20;;;;;;;14.02;69.77;100356.58;106829;1267;25373;-56
2023/04/13 02:41:56;;;;;;;9.50;8.70;;;;;;;14.00;69.87;100354.61;107118;1272;25449;-55
2023/04/13 02:44:26;;;;;;;8.70;7.90;;;;;;;13.99;70.02;100350.45;106991;1269;22543;-55
2023/04/13 02:46:57;;;;;;;9.00;8.10;;;;;;;13.99;70.01;100351.34;106891;1272;25727;-55
2023/04/13 02:49:25;;;;;;;9.40;8.40;;;;;;;13.96;70.09;100348.82;107080;1269;25491;-55
2023/04/13 02:52:06;;;;;;;9.00;8.20;;;;;;;13.93;70.22;100353.30;107135;1270;25537;-55
2023/04/13 02:55:03;;;;;;;9.10;8.20;;;;;;;13.92;70.54;100354.07;107055;1275;25334;-55
2023/04/13 02:57:43;;;;;;;8.80;7.90;;;;;;;13.91;70.57;100356.00;107146;1272;25350;-56
2023/04/13 03:00:15;;;;;;;8.70;7.80;;;;;;;13.91;70.62;100357.40;106820;1270;22520;-55
2023/04/13 03:03:09;;;;;;;9.60;8.70;;;;;;;13.92;70.67;100358.07;107122;1267;25401;-56
2023/04/13 03:05:42;;;;;;;8.00;7.30;;;;;;;13.91;70.69;100361.57;107067;1271;22514;-55
2023/04/13 03:08:13;;;;;;;10.10;8.00;;;;;;;13.91;70.64;100360.70;107046;1267;22664;-55
2023/04/13 03:10:53;;;;;;;10.40;7.60;;;;;;;13.90;70.70;100363.38;106788;1270;24275;-55
2023/04/13 03:13:26;;;;;;;8.60;7.80;;;;;;;13.90;70.76;100364.95;106742;1270;25341;-55
2023/04/13 03:15:56;;;;;;;8.20;7.40;;;;;;;13.90;70.70;100371.41;106822;1269;24240;-55
2023/04/13 03:18:26;;;;;;;10.20;8.50;;;;;;;13.88;70.77;100377.06;107066;1271;22525;-55
2023/04/13 03:20:54;;;;;;;8.20;7.50;;;;;;;13.87;70.89;100379.34;106920;1267;25459;-55
2023/04/13 03:23:24;;;;;;;8.80;8.00;;;;;;;13.88;70.92;100380.52;107038;1267;25369;-56
2023/04/13 03:25:57;;;;;;;8.00;7.30;;;;;;;13.90;70.89;100386.06;106781;1274;25337;-55
2023/04/13 03:28:28;;;;;;;8.20;7.50;;;;;;;13.91;70.93;100388.09;107073;1267;25356;-55
2023/04/13 03:30:56;;;;;;;8.70;7.80;;;;;;;13.93;70.82;100390.62;107094;1270;25246;-56
2023/04/13 03:33:30;;;;;;;9.00;8.10;;;;;;;13.94;70.76;100397.05;107087;1269;25434;-55
2023/04/13 03:36:02;;;;;;;8.90;8.10;;;;;;;13.94;70.62;100404.38;107099;1270;25526;-55
2023/04/13 03:38:34;;;;;;;8.00;7.30;;;;;;;13.96;70.66;100411.80;106805;1270;25398;-55
2023/04/13 03:41:02;;;;;;;8.60;7.80;;;;;;;13.98;70.43;100417.13;107082;1273;25497;-55
2023/04/13 03:43:31;;;;;;;8.60;7.90;;;;;;;13.98;70.51;100419.19;107073;1271;25336;-55
2023/04/13 03:46:12;;;;;;;9.40;8.50;;;;;;;14.02;70.50;100421.14;106856;1267;25251;-55
2023/04/13 03:48:41;;;;;;;9.20;8.20;;;;;;;14.04;70.43;100423.29;106966;1270;22521;-55
2023/04/13 03:51:15;;;;;;;9.10;8.20;;;;;;;14.06;70.39;100425.30;107025;1267;25423;-55
2023/04/13 03:53:49;;;;;;;9.30;8.40;;;;;;;14.08;70.21;100427.48;107109;1272;25423;-55
2023/04/13 03:56:22;;;;;;;9.80;8.70;;;;;;;14.07;70.12;100428.77;107073;1269;25436;-55
2023/04/13 03:58:52;;;;;;;10.10;9.10;;;;;;;14.07;70.28;100429.81;107030;1269;22543;-55
2023/04/13 04:01:23;;;;;;;9.30;8.40;;;;;;;14.09;70.25;100428.16;107095;1267;25319;-55
2023/04/13 04:03:55;;;;;;;9.70;8.80;;;;;;;14.14;70.28;100425.70;106894;1270;25343;-55
2023/04/13 04:06:27;;;;;;;9.50;8.60;;;;;;;14.21;70.10;100430.96;106817;1272;23267;-55
2023/04/13 04:09:08;;;;;;;9.60;8.60;;;;;;;14.28;69.99;100435.06;106939;1270;25290;-55
2023/04/13 04:11:46;;;;;;;10.60;9.50;;;;;;;14.32;69.79;100442.72;106995;1269;25331;-55
2023/04/13 04:14:19;;;;;;;9.50;8.60;;;;;;;14.37;69.68;100445.48;106901;1269;25325;-55
2023/04/13 04:16:56;;;;;;;9.10;8.30;;;;;;;14.43;69.54;100445.95;106915;1269;25353;-55
2023/04/13 04:19:24;;;;;;;9.70;8.70;;;;;;;14.47;69.40;100447.48;106918;1270;25325;-55
2023/04/13 04:21:56;;;;;;;9.80;9.00;;;;;;;14.52;69.25;100444.34;106798;1270;25443;-55
2023/04/13 04:24:26;;;;;;;9.30;8.50;;;;;;;14.55;69.07;100448.38;106889;1270;25353;-55
2023/04/13 04:26:59;;;;;;;9.10;8.20;;;;;;;14.59;68.94;100454.48;106951;1271;25284;-55
2023/04/13 04:29:33;;;;;;;9.00;8.10;;;;;;;14.61;68.73;100451.23;106963;1270;22598;-55
2023/04/13 04:32:22;;;;;;;8.50;7.70;;;;;;;14.63;68.63;100453.60;106748;1272;25597;-55
2023/04/13 04:34:52;;;;;;;9.90;9.00;;;;;;;14.66;68.54;100456.98;106816;1273;27094;-55
2023/04/13 04:37:22;;;;;;;10.90;8.30;;;;;;;14.68;68.46;100458.46;107188;1269;23279;-55
2023/04/13 04:39:59;;;;;;;9.00;8.10;;;;;;;14.70;68.37;100456.83;105687;1268;1003220;-55
2023/04/13 04:42:28;;;;;;;8.20;7.50;;;;;;;14.72;68.32;100457.64;107054;1267;25412;-55
2023/04/13 04:45:03;;;;;;;7.80;6.80;;;;;;;14.74;68.27;100459.29;107045;1267;24226;-55
2023/04/13 04:47:36;;;;;;;7.50;6.80;;;;;;;14.74;68.05;100459.77;107101;1267;23170;-55
2023/04/13 04:50:16;;;;;;;8.40;7.60;;;;;;;14.75;68.02;100462.19;107150;1272;25385;-55
2023/04/13 04:52:47;;;;;;;7.70;7.10;;;;;;;14.76;67.99;100462.66;107087;1269;22642;-55
2023/04/13 04:55:19;;;;;;;7.90;7.20;;;;;;;14.77;67.94;100461.76;107026;1268;22530;-55
2023/04/13 04:57:51;;;;;;;7.40;6.70;;;;;;;14.78;67.89;100458.58;107058;1268;23297;-56
2023/04/13 05:00:21;;;;;;;7.70;7.00;;;;;;;14.79;67.88;100456.80;106831;1273;22638;-55
2023/04/13 05:03:00;;;;;;;8.60;7.20;;;;;;;14.79;67.91;100457.30;106768;1275;22520;-55
2023/04/13 05:05:30;;;;;;;8.10;7.40;;;;;;;14.80;67.85;100454.28;107015;1272;22554;-55
2023/04/13 05:08:05;;;;;;;8.10;7.30;;;;;;;14.81;67.92;100456.69;107104;1269;25494;-55
2023/04/13 05:10:42;;;;;;;8.10;7.30;;;;;;;14.82;67.93;100456.83;107057;1272;22913;-55
2023/04/13 05:13:11;;;;;;;8.60;7.10;;;;;;;14.83;67.99;100463.60;107082;1269;22527;-55
2023/04/13 05:15:48;;;;;;;8.90;8.00;;;;;;;14.84;67.89;100460.23;107089;1272;25397;-55
2023/04/13 05:18:18;;;;;;;9.10;8.20;;;;;;;14.85;67.88;100459.33;106957;1268;22522;-55
2023/04/13 05:20:47;;;;;;;9.40;8.50;;;;;;;14.86;67.85;100459.11;106703;1267;25353;-56
2023/04/13 05:23:21;;;;;;;9.70;8.20;;;;;;;14.86;67.88;100464.18;106802;1276;25395;-55
2023/04/13 05:25:55;;;;;;;9.40;8.40;;;;;;;14.86;67.85;100468.52;106960;1267;23801;-55
2023/04/13 05:28:25;;;;;;;9.90;9.00;;;;;;;14.87;67.79;100470.77;107167;1270;25356;-55
2023/04/13 05:31:00;;;;;;;9.50;8.60;;;;;;;14.88;67.84;100468.64;107101;1260;25417;-55
2023/04/13 05:33:30;;;;;;;9.80;8.80;;;;;;;14.89;67.84;100466.81;106992;1272;22517;-55
2023/04/13 05:36:00;;;;;;;8.80;8.00;;;;;;;14.89;67.83;100468.91;107112;1273;25334;-55
2023/04/13 05:38:29;;;;;;;9.50;8.60;;;;;;;14.90;67.84;100465.21;107077;1272;22530;-55
2023/04/13 05:40:58;;;;;;;10.00;9.10;;;;;;;14.91;67.84;100463.95;106827;1272;25357;-55
2023/04/13 05:43:27;;;;;;;10.70;9.70;;;;;;;14.92;67.83;100460.23;106890;1275;24576;-55
2023/04/13 05:45:55;;;;;;;10.20;9.30;;;;;;;14.92;67.71;100461.27;107056;1271;25387;-55
2023/04/13 05:48:25;;;;;;;9.60;8.70;;;;;;;14.92;67.68;100463.52;107123;1269;25405;-55
2023/04/13 05:50:59;;;;;;;10.10;9.00;;;;;;;14.93;67.66;100466.48;106924;1267;25510;-55
2023/04/13 05:53:32;;;;;;;9.50;8.60;;;;;;;14.92;67.61;100468.60;106763;1276;25335;-55
2023/04/13 05:56:01;;;;;;;10.50;9.50;;;;;;;14.91;67.67;100468.99;107036;1270;25327;-55
2023/04/13 05:58:31;;;;;;;10.10;9.10;;;;;;;14.93;67.67;100471.02;106974;1269;25347;-55
2023/04/13 06:01:14;;;;;;;11.10;9.90;;;;;;;14.94;67.68;100469.39;107088;1270;25319;-55
2023/04/13 06:03:43;;;;;;;12.70;9.90;;;;;;;14.94;67.73;100467.80;107058;1272;22642;-55
2023/04/13 06:06:13;;;;;;;11.30;10.20;;;;;;;14.96;67.83;100467.89;107059;1273;22526;-55
2023/04/13 06:08:43;;;;;;;10.30;9.40;;;;;;;14.99;67.75;100467.25;107207;1267;22508;-55
2023/04/13 06:11:12;;;;;;;11.20;9.60;;;;;;;15.01;67.83;100465.22;107206;1267;23398;-56
2023/04/13 06:13:41;;;;;;;11.50;10.30;;;;;;;15.04;67.87;100462.48;106848;1270;25372;-55
2023/04/13 06:16:10;;;;;;;11.40;10.30;;;;;;;15.06;67.97;100464.46;106976;1269;24656;-55
2023/04/13 06:18:38;;;;;;;11.40;10.30;;;;;;;15.10;68.11;100470.40;107112;1271;25331;-55
2023/04/13 06:21:13;;;;;;;9.90;8.90;;;;;;;15.14;68.17;100474.25;107184;1270;25356;-55
2023/04/13 06:23:42;;;;;;;11.70;10.40;;;;;;;15.18;68.23;100480.54;107140;1269;25333;-55
2023/04/13 06:26:18;;;;;;;11.50;10.40;;;;;;;15.22;68.23;100487.50;106810;1267;25311;-55
2023/04/13 06:28:53;;;;;;;11.30;10.20;;;;;;;15.25;67.98;100493.67;106784;1267;23168;-56
2023/04/13 06:31:26;;;;;;;11.30;10.20;;;;;;;15.26;67.62;100498.49;106833;1272;22642;-55
2023/04/13 06:33:55;;;;;;;10.00;9.10;;;;;;;15.27;67.39;100499.55;106802;1271;24264;-55
2023/04/13 06:36:28;;;;;;;11.80;10.10;;;;;;;15.27;67.39;100498.12;106805;1271;25356;-55
2023/04/13 06:38:57;;;;;;;10.80;9.70;;;;;;;15.29;67.30;100497.69;106872;1272;25353;-55
2023/04/13 06:41:26;;;;;;;11.70;10.50;;;;;;;15.31;67.38;100501.07;106704;1271;22518;-55
2023/04/13 06:44:10;;;;;;;11.60;10.20;;;;;;;15.34;67.32;100504.42;106589;1273;25353;-55
2023/04/13 06:46:52;;;;;;;10.80;9.30;;;;;;;15.37;67.39;100508.48;106907;1267;25356;-55
2023/04/13 06:49:21;;;;;;;10.20;9.30;;;;;;;15.41;67.44;100510.05;107046;1271;24336;-55
2023/04/13 06:51:51;;;;;;;11.00;9.90;;;;;;;15.47;67.52;100510.88;107008;1270;25340;-55
2023/04/13 06:54:20;;;;;;;10.90;9.80;;;;;;;15.54;67.63;100512.30;106952;1275;25362;-55
2023/04/13 06:56:51;;;;;;;10.40;9.30;;;;;;;15.62;67.72;100513.50;107096;1270;25356;-55
2023/04/13 06:59:20;;;;;;;10.40;9.40;;;;;;;15.70;67.65;100514.35;107071;1273;25342;-55
2023/04/13 07:01:48;;;;;;;9.80;8.80;;;;;;;15.78;67.52;100515.34;107208;1267;25493;-55
2023/04/13 07:04:18;;;;;;;9.70;8.80;;;;;;;15.88;67.46;100521.16;107014;1267;25328;-55
2023/04/13 07:06:47;;;;;;;11.10;10.00;;;;;;;15.97;66.93;100524.25;107109;1267;24228;-55
2023/04/13 07:09:16;;;;;;;10.60;9.60;;;;;;;16.02;66.50;100530.98;106827;1273;25328;-55
2023/04/13 07:11:46;;;;;;;9.80;8.90;;;;;;;16.08;66.21;100533.88;107052;1267;25350;-55
2023/04/13 07:14:15;;;;;;;9.70;8.90;;;;;;;16.12;66.00;100534.02;106879;1267;22689;-55
2023/04/13 07:16:45;;;;;;;10.30;9.30;;;;;;;16.15;65.77;100531.05;106350;1267;1003103;-55
2023/04/13 14:59:02;;;;;;;6.20;5.60;;;;;;;17.68;53.84;100674.24;106981;1266;25239;-55
2023/04/13 15:01:32;;;;;;;7.70;6.20;;;;;;;17.69;53.94;100675.74;106751;1270;25408;-55
2023/04/13 15:04:02;;;;;;;7.10;6.20;;;;;;;17.71;53.81;100676.36;106828;1269;25505;-55
2023/04/13 15:06:30;;;;;;;7.50;6.80;;;;;;;17.69;53.72;100679.06;106500;1270;23222;-55
2023/04/13 15:09:00;;;;;;;6.60;6.00;;;;;;;17.69;53.85;100687.15;106860;1269;25363;-55
2023/04/13 15:11:36;;;;;;;5.70;5.20;;;;;;;17.68;53.83;100688.27;106761;1270;25369;-55
2023/04/13 15:14:05;;;;;;;7.40;5.60;;;;;;;17.65;53.80;100687.36;106698;1276;25290;-55
2023/04/13 15:16:34;;;;;;;7.40;6.40;;;;;;;17.61;54.07;100686.69;106788;1271;25357;-55
2023/04/13 15:19:03;;;;;;;6.70;6.00;;;;;;;17.58;54.35;100688.61;106620;1270;23221;-54
2023/04/13 15:21:35;;;;;;;7.10;6.40;;;;;;;17.57;54.54;100687.98;106674;1273;25427;-55
2023/04/13 15:24:04;;;;;;;6.30;5.80;;;;;;;17.58;54.90;100692.13;106846;1260;25436;-55
2023/04/13 15:26:38;;;;;;;6.10;5.50;;;;;;;17.61;54.88;100690.73;106758;1269;22524;-55
2023/04/13 15:29:07;;;;;;;5.40;4.90;;;;;;;17.64;54.70;100694.08;106775;1269;22649;-55
2023/04/13 15:31:37;;;;;;;5.60;5.00;;;;;;;17.68;54.39;100695.83;106597;1270;25290;-55
2023/04/13 15:34:07;;;;;;;5.10;4.60;;;;;;;17.70;54.09;100696.02;106752;1273;23889;-55
2023/04/13 15:36:36;;;;;;;5.90;4.70;;;;;;;17.69;53.83;100695.90;107016;1266;22526;-55
2023/04/13 15:39:05;;;;;;;5.40;4.90;;;;;;;17.66;53.73;100691.86;107030;1266;22527;-55
2023/04/13 15:41:34;;;;;;;5.40;4.90;;;;;;;17.64;53.65;100690.77;106815;1274;25356;-55
2023/04/13 15:44:02;;;;;;;5.40;4.90;;;;;;;17.64;53.63;100693.76;107158;1266;23175;-55
2023/04/13 15:46:31;;;;;;;5.70;5.10;;;;;;;17.63;53.43;100696.63;106890;1271;22647;-54
2023/04/13 15:49:00;;;;;;;5.20;4.80;;;;;;;17.65;53.29;100702.83;107057;1266;22615;-55
2023/04/13 15:51:30;;;;;;;6.50;5.00;;;;;;;17.65;52.89;100700.89;107050;1266;25548;-54
2023/04/13 15:53:59;;;;;;;5.50;5.00;;;;;;;17.64;52.90;100705.27;106617;1275;25447;-55
2023/04/13 15:56:27;;;;;;;7.40;6.20;;;;;;;17.65;52.81;100703.50;106742;1267;25395;-55
2023/04/13 15:58:56;;;;;;;8.20;7.40;;;;;;;17.68;52.83;100709.69;106815;1266;24779;-55
2023/04/13 16:01:26;;;;;;;7.70;7.00;;;;;;;17.72;53.00;100711.72;106921;1266;22567;-55
2023/04/13 16:03:56;;;;;;;7.00;6.30;;;;;;;17.78;52.81;100710.52;106895;1266;24202;-55
2023/04/13 16:06:26;;;;;;;6.40;5.30;;;;;;;17.81;52.54;100711.60;106658;1267;25249;-55
2023/04/13 16:08:59;;;;;;;5.30;4.80;;;;;;;17.87;51.80;100715.17;106835;1266;25405;-55
2023/04/13 16:11:30;;;;;;;5.30;4.70;;;;;;;17.87;51.54;100720.75;106773;1266;25490;-55
2023/04/13 16:14:05;;;;;;;7.50;6.20;;;;;;;17.84;51.44;100722.32;106842;1266;25336;-54
2023/04/13 16:16:45;;;;;;;10.30;8.60;;;;;;;17.83;51.31;100721.20;106594;1267;25343;-54
2023/04/13 16:19:17;;;;;;;12.20;9.50;;;;;;;17.81;51.30;100720.73;106759;1266;25447;-54
2023/04/13 16:21:45;;;;;;;18.20;13.00;;;;;;;17.81;51.15;100718.46;106888;1274;25567;-55
2023/04/13 16:24:15;;;;;;;17.40;13.50;;;;;;;17.80;51.21;100724.30;106986;1269;24453;-55
2023/04/13 16:26:45;;;;;;;22.70;16.30;;;;;;;17.81;51.35;100722.68;107218;1266;25660;-55
2023/04/13 16:29:13;;;;;;;18.00;13.50;;;;;;;17.78;51.28;100725.81;107055;1270;22518;-55
2023/04/13 16:31:45;;;;;;;13.40;11.20;;;;;;;17.77;51.30;100725.48;107150;1266;22951;-54
2023/04/13 16:34:14;;;;;;;10.50;9.00;;;;;;;17.79;51.20;100727.86;107249;1266;22520;-55
2023/04/13 16:36:53;;;;;;;15.70;12.50;;;;;;;17.76;51.28;100732.58;107092;1266;25408;-55
2023/04/13 16:39:23;;;;;;;9.40;8.10;;;;;;;17.76;51.41;100734.50;107041;1266;25347;-54
2023/04/13 16:41:52;;;;;;;6.70;6.00;;;;;;;17.73;51.63;100736.79;107205;1267;24228;-54
2023/04/13 16:44:20;;;;;;;5.50;5.00;;;;;;;17.73;51.77;100740.63;107120;1269;22539;-54
2023/04/13 16:46:49;;;;;;;4.80;4.30;;;;;;;17.73;51.70;100741.33;107241;1266;25356;-54
2023/04/13 16:49:19;;;;;;;5.70;4.50;;;;;;;17.73;51.72;100741.70;107029;1269;25411;-54
2023/04/13 16:51:47;;;;;;;5.90;4.70;;;;;;;17.73;51.74;100743.95;106964;1267;22513;-55
2023/04/13 16:54:17;;;;;;;5.80;5.20;;;;;;;17.74;51.71;100748.83;107035;1274;22535;-55
2023/04/13 16:56:46;;;;;;;7.40;5.80;;;;;;;17.74;51.93;100752.88;106897;1272;25446;-55
2023/04/13 16:59:14;;;;;;;8.90;6.50;;;;;;;17.72;52.13;100758.23;106832;1272;25227;-55
2023/04/13 17:01:42;;;;;;;8.70;6.90;;;;;;;17.71;52.34;100759.52;106904;1274;22527;-55
2023/04/13 17:04:12;;;;;;;7.90;6.50;;;;;;;17.69;52.44;100757.30;107089;1266;22664;-55
2023/04/13 17:06:41;;;;;;;8.00;6.80;;;;;;;17.67;52.71;100762.72;107085;1266;24221;-55
2023/04/13 17:09:10;;;;;;;10.20;7.70;;;;;;;17.65;52.71;100771.23;107111;1267;25375;-55
2023/04/13 17:11:40;;;;;;;9.70;7.80;;;;;;;17.64;52.81;100778.48;107174;1267;25340;-55
2023/04/13 17:14:08;;;;;;;10.80;8.40;;;;;;;17.62;52.78;100786.09;107063;1266;25384;-55
2023/04/13 17:16:37;;;;;;;10.10;7.70;;;;;;;17.61;52.91;100788.95;107019;1270;25349;-54
2023/04/13 17:19:06;;;;;;;10.90;8.40;;;;;;;17.62;52.94;100794.04;107130;1266;25433;-55
2023/04/13 17:21:36;;;;;;;10.20;7.90;;;;;;;17.63;52.98;100800.30;107090;1266;25316;-55
2023/04/13 17:24:06;;;;;;;10.80;8.30;;;;;;;17.63;52.87;100800.80;107165;1266;24222;-55
2023/04/13 17:26:37;;;;;;;10.30;8.00;;;;;;;17.63;52.74;100803.95;107085;1267;25873;-55
2023/04/13 17:29:06;;;;;;;8.80;7.90;;;;;;;17.63;52.65;100807.10;106825;1267;25341;-55
2023/04/13 17:31:35;;;;;;;7.80;7.00;;;;;;;17.62;52.72;100812.08;107083;1270;24209;-54
2023/04/13 17:34:04;;;;;;;8.80;7.90;;;;;;;17.59;52.69;100817.29;106941;1266;25438;-54
2023/04/13 17:36:32;;;;;;;7.20;6.30;;;;;;;17.58;53.04;100816.85;107181;1266;25341;-55
2023/04/13 17:39:01;;;;;;;6.30;5.70;;;;;;;17.55;53.89;100819.11;107065;1267;22519;-55
2023/04/13 17:41:34;;;;;;;6.30;5.70;;;;;;;17.51;54.70;100817.91;106774;1267;25398;-55
2023/04/13 17:44:03;;;;;;;6.40;5.80;;;;;;;17.47;55.25;100820.89;107085;1266;24369;-55
2023/04/13 17:46:32;;;;;;;7.00;5.90;;;;;;;17.43;55.74;100828.25;107059;1266;24268;-55
2023/04/13 17:49:01;;;;;;;6.10;5.50;;;;;;;17.40;56.18;100829.29;107087;1266;24237;-55
2023/04/13 17:51:32;;;;;;;5.90;5.30;;;;;;;17.37;56.42;100831.19;107096;1266;25405;-55
2023/04/13 17:54:00;;;;;;;5.80;5.10;;;;;;;17.34;56.54;100832.41;106926;1272;22571;-55
2023/04/13 17:56:30;;;;;;;5.60;5.10;;;;;;;17.31;56.64;100831.49;107078;1266;26487;-55
2023/04/13 17:58:59;;;;;;;5.60;5.10;;;;;;;17.28;56.68;100829.16;107072;1266;25481;-55
2023/04/13 18:01:28;;;;;;;6.10;5.50;;;;;;;17.27;56.45;100829.03;107144;1266;22639;-55
2023/04/13 18:04:01;;;;;;;6.20;5.50;;;;;;;17.27;56.14;100828.70;107023;1269;25414;-55
2023/04/13 18:06:30;;;;;;;6.20;5.60;;;;;;;17.25;56.09;100832.46;107085;1266;25404;-55
2023/04/13 18:08:59;;;;;;;7.30;6.00;;;;;;;17.24;56.07;100834.42;107041;1266;25337;-55
2023/04/13 18:11:32;;;;;;;6.60;5.80;;;;;;;17.24;55.97;100836.37;107107;1266;25350;-55
2023/04/13 18:14:01;;;;;;;6.90;5.70;;;;;;;17.24;55.83;100840.25;107123;1267;22645;-55
2023/04/13 18:16:30;;;;;;;6.90;5.80;;;;;;;17.22;55.76;100840.67;107013;1267;22544;-55
2023/04/13 18:18:59;;;;;;;6.00;5.40;;;;;;;17.23;55.62;100842.58;106831;1267;25341;-55
2023/04/13 18:21:36;;;;;;;6.20;5.60;;;;;;;17.23;55.61;100843.45;106815;1270;25363;-55
2023/04/13 18:24:05;;;;;;;6.30;5.70;;;;;;;17.23;55.51;100843.09;106829;1267;24262;-55
2023/04/13 18:26:34;;;;;;;6.80;6.10;;;;;;;17.25;55.33;100846.48;106913;1267;22527;-55
2023/04/13 18:29:08;;;;;;;6.00;5.40;;;;;;;17.26;55.28;100850.13;106780;1266;25392;-55
2023/04/13 18:31:38;;;;;;;5.70;5.20;;;;;;;17.27;55.23;100851.66;107164;1266;22558;-55
2023/04/13 18:34:09;;;;;;;6.40;5.50;;;;;;;17.28;55.09;100851.80;107079;1267;25404;-55
2023/04/13 18:36:37;;;;;;;6.10;4.90;;;;;;;17.27;55.02;100851.48;107135;1272;25360;-54
2023/04/13 18:39:08;;;;;;;5.40;4.80;;;;;;;17.26;55.03;100850.15;107202;1266;25366;-55
2023/04/13 18:41:37;;;;;;;6.00;5.10;;;;;;;17.23;55.00;100849.77;106807;1272;25368;-55
2023/04/13 18:44:09;;;;;;;6.60;5.40;;;;;;;17.20;55.11;100849.21;107117;1266;25487;-55
2023/04/13 18:46:39;;;;;;;7.50;4.90;;;;;;;17.15;55.34;100850.48;106909;1270;24201;-55
2023/04/13 18:49:08;;;;;;;5.90;5.10;;;;;;;17.13;55.33;100851.64;107128;1266;24241;-55
2023/04/13 18:51:38;;;;;;;7.30;5.30;;;;;;;17.11;55.33;100848.05;107142;1267;25363;-55
2023/04/13 18:54:07;;;;;;;5.40;4.90;;;;;;;17.11;55.34;100852.09;107061;1274;25391;-54
2023/04/13 18:56:35;;;;;;;5.50;4.90;;;;;;;17.11;55.20;100851.02;107255;1266;25403;-54
2023/04/13 18:59:04;;;;;;;5.30;4.60;;;;;;;17.11;55.19;100853.28;107035;1267;25362;-55
2023/04/13 19:01:33;;;;;;;5.30;4.70;;;;;;;17.12;55.14;100850.98;107213;1266;25596;-54
2023/04/13 19:04:01;;;;;;;6.50;5.00;;;;;;;17.12;55.10;100849.95;106914;1271;24352;-55
2023/04/13 19:06:35;;;;;;;5.40;4.80;;;;;;;17.11;55.15;100853.81;107059;1271;25450;-55
2023/04/13 19:09:04;;;;;;;6.30;5.00;;;;;;;17.13;55.09;100857.94;106876;1269;22620;-55
2023/04/13 19:11:52;;;;;;;5.90;4.70;;;;;;;17.16;55.05;100860.79;107069;1269;22523;-55
2023/04/13 19:14:23;;;;;;;5.10;4.70;;;;;;;17.16;55.01;100860.41;107164;1269;25446;-55